Terminal Aerodrome Forecast
Issued by NWS

Home | Current Version | Previous Version | Text Only | Print | Product List | Glossary On
Versions: 1 2 3 4 5 6 7 8 9 10 11 12 13 14 15 16
397
FTUS46 KMTR 181723
TAFSJC
TAF
KSJC 181723Z 1818/1918 VRB03KT 4SM HZ FEW005 SCT010 SCT200
     FM182100 31010KT P6SM SCT200
     FM190400 30008KT P6SM BKN250
     FM190800 VRB04KT P6SM BKN008=

USA.gov is the U.S. government's official web portal to all federal, state and local government web resources and services.